createdAt,value
2023-05-10T00:00:05.857Z,101406.62
2023-05-10T00:03:10.879Z,101405.13
2023-05-10T00:05:58.017Z,101403.65
2023-05-10T00:08:44.925Z,101402.89
2023-05-10T00:11:31.644Z,101404.59
2023-05-10T00:14:18.617Z,101407.20
2023-05-10T00:17:04.947Z,101405.31
2023-05-10T00:19:51.647Z,101403.14
2023-05-10T00:22:38.759Z,101402.52
2023-05-10T00:25:25.515Z,101388.60
2023-05-10T00:28:15.303Z,101392.24
2023-05-10T00:31:01.970Z,101391.05
2023-05-10T00:33:50.038Z,101391.97
2023-05-10T00:36:36.450Z,101385.40
2023-05-10T00:39:23.079Z,101382.27
2023-05-10T00:42:09.792Z,101385.60
2023-05-10T00:44:56.647Z,101381.17
2023-05-10T00:47:43.717Z,101377.81
2023-05-10T00:50:31.929Z,101377.23
2023-05-10T00:53:18.914Z,101373.90
2023-05-10T00:56:06.590Z,101373.63
2023-05-10T00:58:53.347Z,101371.79
2023-05-10T01:01:39.926Z,101369.63
2023-05-10T01:04:26.916Z,101371.16
2023-05-10T01:07:13.775Z,101372.77
2023-05-10T01:10:00.053Z,101368.69
2023-05-10T01:12:48.264Z,101370.42
2023-05-10T01:15:36.541Z,101366.10
2023-05-10T01:18:23.738Z,101373.69
2023-05-10T01:21:10.390Z,101367.10
2023-05-10T01:24:16.009Z,101370.34
2023-05-10T01:27:13.653Z,101368.78
2023-05-10T01:30:14.714Z,101361.44
2023-05-10T01:33:34.648Z,101363.28
2023-05-10T01:36:33.786Z,101362.41
2023-05-10T01:39:41.389Z,101360.33
2023-05-10T01:42:36.924Z,101362.23
2023-05-10T01:46:12.689Z,101359.54
2023-05-10T01:49:01.658Z,101351.68
2023-05-10T01:51:55.756Z,101349.89
2023-05-10T01:54:47.743Z,101349.46
2023-05-10T01:57:37.080Z,101352.52
2023-05-10T02:00:25.483Z,101352.47
2023-05-10T02:03:13.334Z,101339.83
2023-05-10T02:06:00.493Z,101343.08
2023-05-10T02:08:48.550Z,101342.64
2023-05-10T02:11:36.042Z,101337.08
2023-05-10T02:14:25.485Z,101335.48
2023-05-10T02:17:12.936Z,101334.74
2023-05-10T02:20:02.008Z,101334.61
2023-05-10T02:22:54.684Z,101331.42
2023-05-10T02:25:44.438Z,101319.10
2023-05-10T02:28:34.035Z,101322.89
2023-05-10T02:31:24.505Z,101326.67
2023-05-10T02:34:12.313Z,101323.95
2023-05-10T02:37:00.533Z,101327.73
2023-05-10T02:39:50.076Z,101330.21
2023-05-10T02:42:38.752Z,101319.36
2023-05-10T02:45:30.102Z,101323.84
2023-05-10T02:48:17.970Z,101324.38
2023-05-10T02:51:08.083Z,101326.29
2023-05-10T02:53:57.120Z,101323.42
2023-05-10T02:56:51.795Z,101324.72
2023-05-10T02:59:38.249Z,101321.33
2023-05-10T03:02:25.023Z,101324.86
2023-05-10T03:05:11.976Z,101328.42
2023-05-10T03:07:58.811Z,101328.79
2023-05-10T03:10:59.526Z,101323.48
2023-05-10T03:13:55.367Z,101313.08
2023-05-10T03:16:47.839Z,101328.21
2023-05-10T03:19:45.608Z,101325.80
2023-05-10T03:22:37.765Z,101323.15
2023-05-10T03:25:25.309Z,101324.95
2023-05-10T03:28:13.226Z,101325.10
2023-05-10T03:31:00.697Z,101320.08
2023-05-10T03:33:51.546Z,101322.60
2023-05-10T03:36:42.372Z,101317.81
2023-05-10T03:39:29.712Z,101319.27
2023-05-10T03:42:18.909Z,101319.44
2023-05-10T03:45:05.882Z,101309.88
2023-05-10T03:47:52.298Z,101316.27
2023-05-10T03:50:38.897Z,101308.99
2023-05-10T03:53:25.784Z,101317.30
2023-05-10T03:56:12.428Z,101316.17
2023-05-10T03:58:59.137Z,101315.63
2023-05-10T04:01:46.009Z,101312.52
2023-05-10T04:04:33.118Z,101309.27
2023-05-10T04:07:19.582Z,101305.09
2023-05-10T04:10:06.897Z,101313.77
2023-05-10T04:12:53.366Z,101314.42
2023-05-10T04:15:39.992Z,101311.27
2023-05-10T04:18:26.768Z,101313.83
2023-05-10T04:21:14.584Z,101307.43
2023-05-10T04:24:01.155Z,101303.95
2023-05-10T04:26:47.671Z,101305.05
2023-05-10T04:29:34.821Z,101310.42
2023-05-10T04:32:21.480Z,101304.55
2023-05-10T04:35:08.592Z,101306.98
2023-05-10T04:37:55.630Z,101306.67
2023-05-10T04:40:42.463Z,101298.98
2023-05-10T04:43:28.796Z,101296.63
2023-05-10T04:46:15.279Z,101296.73
2023-05-10T04:49:02.277Z,101295.96
2023-05-10T04:51:49.015Z,101296.52
2023-05-10T04:54:35.790Z,101300.65
2023-05-10T04:57:22.395Z,101294.78
2023-05-10T05:00:09.608Z,101296.42
2023-05-10T05:02:56.357Z,101292.45
2023-05-10T05:05:42.988Z,101284.70
2023-05-10T05:08:29.244Z,101284.14
2023-05-10T05:11:15.870Z,101287.27
2023-05-10T05:14:02.621Z,101288.02
2023-05-10T05:16:49.075Z,101287.36
2023-05-10T05:19:35.684Z,101286.06
2023-05-10T05:22:29.072Z,101285.55
2023-05-10T05:25:16.207Z,101282.38
2023-05-10T05:28:02.671Z,101283.64
2023-05-10T05:30:49.332Z,101275.30
2023-05-10T05:33:35.931Z,101283.84
2023-05-10T05:36:22.323Z,101285.44
2023-05-10T05:39:08.799Z,101284.05
2023-05-10T05:41:55.775Z,101272.88
2023-05-10T05:44:42.254Z,101277.11
2023-05-10T05:47:28.838Z,101278.73
2023-05-10T05:50:15.605Z,101275.15
2023-05-10T05:53:01.988Z,101272.52
2023-05-10T05:55:55.729Z,101271.44
2023-05-10T05:58:42.485Z,101263.20
2023-05-10T06:01:29.029Z,101268.71
2023-05-10T06:04:15.877Z,101253.35
2023-05-10T06:07:02.144Z,101263.67
2023-05-10T06:09:48.616Z,101265.86
2023-05-10T06:12:35.641Z,101259.50
2023-05-10T06:15:22.666Z,101266.65
2023-05-10T06:18:09.023Z,101273.04
2023-05-10T06:20:55.491Z,101274.83
2023-05-10T06:23:41.846Z,101274.60
2023-05-10T06:26:28.732Z,101269.20
2023-05-10T06:29:16.285Z,101273.27
2023-05-10T06:32:03.385Z,101274.17
2023-05-10T06:34:49.932Z,101277.97
2023-05-10T06:37:36.551Z,101272.41
2023-05-10T06:40:23.121Z,101267.84
2023-05-10T06:43:11.043Z,101264.64
2023-05-10T06:45:58.129Z,101262.70
2023-05-10T06:48:44.551Z,101263.21
2023-05-10T06:51:31.697Z,101259.17
2023-05-10T06:54:18.903Z,101256.05
2023-05-10T06:57:10.765Z,101257.42
2023-05-10T07:00:05.754Z,101261.80
2023-05-10T07:02:53.092Z,101258.07
2023-05-10T07:05:39.813Z,101260.59
2023-05-10T07:08:26.518Z,101260.14
2023-05-10T07:11:13.131Z,101258.60
2023-05-10T07:13:59.250Z,101258.04
2023-05-10T07:16:46.034Z,101258.73
2023-05-10T07:19:33.705Z,101261.61
2023-05-10T07:22:20.255Z,101256.02
2023-05-10T07:25:07.392Z,101255.00
2023-05-10T07:27:54.252Z,101251.46
2023-05-10T07:30:40.753Z,101250.27
2023-05-10T07:33:27.425Z,101253.00
2023-05-10T07:36:13.709Z,101258.30
2023-05-10T07:38:59.950Z,101254.45
2023-05-10T07:41:46.995Z,101257.27
2023-05-10T07:44:33.809Z,101255.96
2023-05-10T07:47:20.339Z,101254.23
2023-05-10T07:50:08.224Z,101245.66
2023-05-10T07:52:54.715Z,101247.05
2023-05-10T07:55:41.504Z,101247.66
2023-05-10T07:58:27.975Z,101257.73
2023-05-10T08:01:14.663Z,101256.46
2023-05-10T08:04:01.882Z,101256.74
2023-05-10T08:06:48.310Z,101253.39
2023-05-10T08:09:35.177Z,101249.14
2023-05-10T08:12:21.355Z,101237.96
2023-05-10T08:15:09.128Z,101248.69
2023-05-10T08:17:56.201Z,101247.63
2023-05-10T08:20:42.780Z,101244.19
2023-05-10T08:23:29.368Z,101249.57
2023-05-10T08:26:16.297Z,101248.81
2023-05-10T08:29:03.352Z,101250.58
2023-05-10T08:31:50.124Z,101242.54
2023-05-10T08:34:36.956Z,101240.62
2023-05-10T08:37:24.634Z,101241.83
2023-05-10T08:40:12.628Z,101240.70
2023-05-10T08:43:12.036Z,101244.35
2023-05-10T08:46:04.195Z,101237.70
2023-05-10T08:48:52.776Z,101237.11
2023-05-10T08:51:45.914Z,101243.11
2023-05-10T08:54:34.266Z,101238.20
2023-05-10T08:57:21.395Z,101232.06
2023-05-10T09:00:09.278Z,101232.95
2023-05-10T09:02:56.156Z,101236.20
2023-05-10T09:05:43.364Z,101236.99
2023-05-10T09:08:31.741Z,101233.54
2023-05-10T09:11:18.784Z,101238.28
2023-05-10T09:14:05.330Z,101237.25
2023-05-10T09:16:52.030Z,101232.02
2023-05-10T09:19:38.897Z,101235.39
2023-05-10T09:22:25.979Z,101227.92
2023-05-10T09:25:15.025Z,101231.75
2023-05-10T09:28:01.575Z,101230.14
2023-05-10T09:30:54.565Z,101229.88
2023-05-10T09:33:49.584Z,101230.17
2023-05-10T09:36:35.765Z,101229.69
2023-05-10T09:39:31.514Z,101227.30
2023-05-10T09:42:19.651Z,101221.22
2023-05-10T09:45:07.771Z,101222.51
2023-05-10T09:47:54.673Z,101230.19
2023-05-10T09:50:41.349Z,101223.27
2023-05-10T09:53:27.642Z,101225.17
2023-05-10T09:56:14.068Z,101225.46
2023-05-10T09:59:04.158Z,101221.52
2023-05-10T10:01:52.293Z,101219.98
2023-05-10T10:04:42.810Z,101212.61
2023-05-10T10:07:30.406Z,101213.73
2023-05-10T10:10:16.966Z,101215.93
2023-05-10T10:13:05.930Z,101203.23
2023-05-10T10:15:53.661Z,101190.85
2023-05-10T10:18:40.458Z,101202.44
2023-05-10T10:21:27.582Z,101205.68
2023-05-10T10:24:13.917Z,101203.02
2023-05-10T10:27:21.833Z,101189.58
2023-05-10T10:30:26.107Z,101195.82
2023-05-10T10:33:49.681Z,101203.87
2023-05-10T10:36:48.699Z,101201.49
2023-05-10T10:39:37.757Z,101187.84
2023-05-10T10:42:46.988Z,101180.95
2023-05-10T10:45:33.590Z,101182.22
2023-05-10T10:48:24.208Z,101182.79
2023-05-10T10:51:12.759Z,101176.88
2023-05-10T10:54:10.371Z,101175.34
2023-05-10T10:57:15.957Z,101179.46
2023-05-10T11:00:21.842Z,101163.61
2023-05-10T11:03:12.871Z,101178.54
2023-05-10T11:06:00.995Z,101178.89
2023-05-10T11:08:48.823Z,101170.25
2023-05-10T11:11:36.946Z,101174.09
2023-05-10T11:14:23.787Z,101173.36
2023-05-10T11:17:30.715Z,101177.70
2023-05-10T11:20:23.910Z,101170.70
2023-05-10T11:23:16.672Z,101166.02
2023-05-10T11:26:03.331Z,101174.63
2023-05-10T11:28:50.026Z,101175.83
2023-05-10T11:31:44.900Z,101171.30
2023-05-10T11:34:36.008Z,101162.69
2023-05-10T11:37:22.326Z,101161.65
2023-05-10T11:40:10.769Z,101167.86
2023-05-10T11:42:57.480Z,101165.52
2023-05-10T11:45:43.792Z,101165.41
2023-05-10T11:48:31.021Z,101163.99
2023-05-10T11:51:21.368Z,101167.86
2023-05-10T11:54:10.515Z,101167.70
2023-05-10T11:56:56.724Z,101163.02
2023-05-10T11:59:43.355Z,101154.98
2023-05-10T12:02:30.401Z,101161.36
2023-05-10T12:05:17.706Z,101159.45
2023-05-10T12:08:21.230Z,101156.45
2023-05-10T12:11:09.688Z,101146.34
2023-05-10T12:13:57.719Z,101150.18
2023-05-10T12:16:44.654Z,101145.02
2023-05-10T12:19:39.563Z,101151.95
2023-05-10T12:22:26.032Z,101151.25
2023-05-10T12:25:12.941Z,101158.02
2023-05-10T12:31:07.535Z,101151.48
2023-05-10T12:33:54.305Z,101141.05
2023-05-10T12:36:40.692Z,101144.85
2023-05-10T12:39:38.033Z,101147.79
2023-05-10T12:42:26.257Z,101146.79
2023-05-10T12:45:13.062Z,101151.33
2023-05-10T12:47:59.699Z,101152.56
2023-05-10T12:50:47.096Z,101150.02
2023-05-10T12:53:33.338Z,101141.50
2023-05-10T12:56:20.001Z,101145.02
2023-05-10T12:59:06.481Z,101135.44
2023-05-10T13:01:52.997Z,101130.98
2023-05-10T13:04:40.883Z,101133.60
2023-05-10T13:07:27.559Z,101131.27
2023-05-10T13:10:14.506Z,101132.52
2023-05-10T13:13:01.140Z,101126.92
2023-05-10T13:15:47.469Z,101128.59
2023-05-10T13:18:34.306Z,101130.30
2023-05-10T13:21:20.797Z,101131.98
2023-05-10T13:24:08.479Z,101127.41
2023-05-10T13:26:54.797Z,101122.09
2023-05-10T13:29:42.540Z,101120.84
2023-05-10T13:32:31.267Z,101115.50
2023-05-10T13:35:17.503Z,101111.17
2023-05-10T13:38:04.119Z,101109.73
2023-05-10T13:40:53.721Z,101106.20
2023-05-10T13:43:40.938Z,101097.67
2023-05-10T13:46:27.260Z,101093.34
2023-05-10T13:49:13.537Z,101097.80
2023-05-10T13:52:00.639Z,101092.52
2023-05-10T13:54:47.313Z,101098.39
2023-05-10T13:57:35.510Z,101101.54
2023-05-10T14:00:22.126Z,101098.48
2023-05-10T14:03:12.353Z,101093.60
2023-05-10T14:05:59.144Z,101097.30
2023-05-10T14:08:45.814Z,101094.60
2023-05-10T14:11:32.404Z,101093.08
2023-05-10T14:14:18.612Z,101093.17
2023-05-10T14:17:05.280Z,101088.42
2023-05-10T14:19:51.794Z,101098.05
2023-05-10T14:22:38.198Z,101095.64
2023-05-10T14:25:24.847Z,101082.86
2023-05-10T14:28:13.073Z,101079.23
2023-05-10T14:30:59.986Z,101078.24
2023-05-10T14:33:46.968Z,101073.38
2023-05-10T14:36:33.360Z,101078.03
2023-05-10T14:39:19.784Z,101072.73
2023-05-10T14:42:06.445Z,101071.42
2023-05-10T14:44:52.787Z,101075.79
2023-05-10T14:47:39.205Z,101075.95
2023-05-10T14:53:19.004Z,101067.50
2023-05-10T14:56:05.873Z,101068.04
2023-05-10T14:58:52.716Z,101069.00
2023-05-10T15:01:42.438Z,101067.77
2023-05-10T15:04:29.553Z,101065.38
2023-05-10T15:07:17.300Z,101069.58
2023-05-10T15:10:04.135Z,101063.83
2023-05-10T15:12:51.404Z,101061.45
2023-05-10T15:15:38.158Z,101056.90
2023-05-10T15:18:24.923Z,101058.12
2023-05-10T15:21:12.836Z,101058.52
2023-05-10T15:23:59.360Z,101059.64
2023-05-10T15:26:45.962Z,101057.77
2023-05-10T15:29:32.548Z,101064.92
2023-05-10T15:32:19.296Z,101066.77
2023-05-10T15:35:07.349Z,101060.31
2023-05-10T15:37:53.841Z,101063.96
2023-05-10T15:40:40.714Z,101065.67
2023-05-10T15:43:27.248Z,101065.19
2023-05-10T15:46:13.329Z,101064.50
2023-05-10T15:49:00.337Z,101067.92
2023-05-10T15:51:46.696Z,101074.50
2023-05-10T15:54:33.442Z,101069.82
2023-05-10T15:57:19.940Z,101072.13
2023-05-10T16:00:08.468Z,101064.74
2023-05-10T16:02:58.719Z,101072.66
2023-05-10T16:05:44.988Z,101067.84
2023-05-10T16:08:33.456Z,101076.41
2023-05-10T16:11:19.644Z,101073.95
2023-05-10T16:14:07.244Z,101073.31
2023-05-10T16:16:53.850Z,101069.25
2023-05-10T16:19:41.257Z,101067.56
2023-05-10T16:22:28.814Z,101069.56
2023-05-10T16:25:15.534Z,101066.31
2023-05-10T16:28:02.540Z,101062.02
2023-05-10T16:30:49.402Z,101067.67
2023-05-10T16:33:36.978Z,101070.19
2023-05-10T16:36:23.410Z,101063.86
2023-05-10T16:39:10.259Z,101068.98
2023-05-10T16:41:56.550Z,101075.48
2023-05-10T16:44:42.971Z,101074.55
2023-05-10T16:47:29.489Z,101077.52
2023-05-10T16:50:15.935Z,101078.84
2023-05-10T16:53:03.220Z,101076.44
2023-05-10T16:55:49.886Z,101077.83
2023-05-10T16:58:36.221Z,101076.80
2023-05-10T17:01:24.961Z,101083.13
2023-05-10T17:04:14.366Z,101082.38
2023-05-10T17:07:01.108Z,101082.61
2023-05-10T17:09:47.613Z,101083.42
2023-05-10T17:12:34.247Z,101086.08
2023-05-10T17:15:21.060Z,101090.34
2023-05-10T17:18:08.142Z,101095.14
2023-05-10T17:20:55.001Z,101093.41
2023-05-10T17:23:41.842Z,101092.39
2023-05-10T17:26:30.104Z,101099.66
2023-05-10T17:29:16.821Z,101100.64
2023-05-10T17:32:03.375Z,101101.35
2023-05-10T17:34:49.783Z,101105.75
2023-05-10T17:37:36.132Z,101101.39
2023-05-10T17:40:22.556Z,101105.73
2023-05-10T17:43:09.217Z,101110.31
2023-05-10T17:45:55.418Z,101115.56
2023-05-10T17:48:42.185Z,101118.81
2023-05-10T17:51:29.003Z,101121.52
2023-05-10T17:54:15.739Z,101120.96
2023-05-10T17:57:03.710Z,101128.84
2023-05-10T17:59:50.110Z,101133.39
2023-05-10T18:02:37.037Z,101128.47
2023-05-10T18:05:24.041Z,101139.15
2023-05-10T18:08:10.921Z,101126.64
2023-05-10T18:10:57.586Z,101142.96
2023-05-10T18:13:43.988Z,101145.42
2023-05-10T18:16:30.525Z,101148.39
2023-05-10T18:19:17.280Z,101147.06
2023-05-10T18:22:03.820Z,101148.29
2023-05-10T18:24:50.165Z,101146.60
2023-05-10T18:27:36.815Z,101147.33
2023-05-10T18:30:23.685Z,101159.18
2023-05-10T18:33:11.813Z,101162.41
2023-05-10T18:35:58.461Z,101167.05
2023-05-10T18:38:45.581Z,101168.66
2023-05-10T18:41:32.134Z,101172.13
2023-05-10T18:44:19.224Z,101174.70
2023-05-10T18:47:05.673Z,101175.61
2023-05-10T18:49:52.895Z,101180.56
2023-05-10T18:52:39.525Z,101187.61
2023-05-10T18:55:26.115Z,101191.98
2023-05-10T18:58:12.744Z,101189.55
2023-05-10T19:00:59.323Z,101194.61
2023-05-10T19:03:45.774Z,101191.80
2023-05-10T19:06:33.856Z,101200.95
2023-05-10T19:09:21.089Z,101203.52
2023-05-10T19:12:07.864Z,101208.10
2023-05-10T19:14:54.305Z,101206.47
2023-05-10T19:17:43.220Z,101211.79
2023-05-10T19:20:30.499Z,101212.06
2023-05-10T19:23:17.182Z,101212.53
2023-05-10T19:26:05.104Z,101212.66
2023-05-10T19:28:52.620Z,101213.02
2023-05-10T19:31:40.154Z,101215.52
2023-05-10T19:34:28.862Z,101217.83
2023-05-10T19:37:15.349Z,101221.55
2023-05-10T19:40:01.783Z,101222.75
2023-05-10T19:42:48.729Z,101228.59
2023-05-10T19:45:35.599Z,101223.00
2023-05-10T19:48:21.819Z,101226.82
2023-05-10T19:51:10.287Z,101225.70
2023-05-10T19:53:58.287Z,101232.09
2023-05-10T19:56:45.067Z,101233.71
2023-05-10T19:59:31.764Z,101237.28
2023-05-10T20:02:18.355Z,101237.13
2023-05-10T20:05:05.211Z,101237.79
2023-05-10T20:07:51.689Z,101240.45
2023-05-10T20:10:37.884Z,101243.52
2023-05-10T20:13:25.155Z,101245.30
2023-05-10T20:16:12.270Z,101249.58
2023-05-10T20:18:59.193Z,101249.71
2023-05-10T20:21:45.973Z,101254.61
2023-05-10T20:24:32.691Z,101255.27
2023-05-10T20:27:21.133Z,101253.86
2023-05-10T20:30:08.514Z,101258.51
2023-05-10T20:32:55.183Z,101255.45
2023-05-10T20:35:42.234Z,101252.21
2023-05-10T20:38:29.042Z,101254.63
2023-05-10T20:41:15.468Z,101257.93
2023-05-10T20:44:02.172Z,101261.08
2023-05-10T20:46:49.907Z,101257.90
2023-05-10T20:49:37.954Z,101258.77
2023-05-10T20:52:24.719Z,101258.43
2023-05-10T20:55:11.432Z,101258.22
2023-05-10T20:57:57.985Z,101261.92
2023-05-10T21:00:44.899Z,101258.33
2023-05-10T21:03:31.160Z,101262.00
2023-05-10T21:06:17.676Z,101266.58
2023-05-10T21:09:04.393Z,101266.19
2023-05-10T21:11:51.203Z,101269.96
2023-05-10T21:14:37.861Z,101271.02
2023-05-10T21:17:24.348Z,101276.08
2023-05-10T21:20:12.076Z,101278.27
2023-05-10T21:22:58.416Z,101277.96
2023-05-10T21:25:44.953Z,101277.61
2023-05-10T21:28:31.776Z,101280.34
2023-05-10T21:31:18.827Z,101280.34
2023-05-10T21:34:05.756Z,101276.69
2023-05-10T21:36:52.562Z,101283.55
2023-05-10T21:39:39.274Z,101286.94
2023-05-10T21:42:25.588Z,101285.88
2023-05-10T21:45:12.176Z,101283.30
2023-05-10T21:48:01.810Z,101285.51
2023-05-10T21:50:48.620Z,101284.50
2023-05-10T21:53:37.692Z,101284.01
2023-05-10T21:56:24.527Z,101285.66
2023-05-10T21:59:11.328Z,101290.23
2023-05-10T22:01:57.881Z,101296.69
2023-05-10T22:04:44.330Z,101294.92
2023-05-10T22:07:31.775Z,101282.83
2023-05-10T22:10:18.322Z,101293.73
2023-05-10T22:13:05.210Z,101294.47
2023-05-10T22:15:51.912Z,101296.13
2023-05-10T22:18:38.282Z,101293.15
2023-05-10T22:21:25.035Z,101300.61
2023-05-10T22:24:11.461Z,101298.90
2023-05-10T22:26:57.698Z,101301.04
2023-05-10T22:29:44.091Z,101306.58
2023-05-10T22:32:31.726Z,101308.15
2023-05-10T22:35:18.197Z,101303.17
2023-05-10T22:38:05.008Z,101306.97
2023-05-10T22:40:51.934Z,101310.64
2023-05-10T22:43:38.002Z,101312.23
2023-05-10T22:46:24.958Z,101310.11
2023-05-10T22:49:11.496Z,101315.95
2023-05-10T22:51:57.771Z,101319.90
2023-05-10T22:54:44.359Z,101316.52
2023-05-10T22:57:31.110Z,101322.55
2023-05-10T23:00:17.811Z,101319.48
2023-05-10T23:03:05.734Z,101319.97
2023-05-10T23:05:52.670Z,101325.12
2023-05-10T23:08:39.317Z,101323.90
2023-05-10T23:11:25.815Z,101324.39
2023-05-10T23:14:12.279Z,101328.95
2023-05-10T23:16:58.565Z,101321.79
2023-05-10T23:19:45.102Z,101332.05
2023-05-10T23:22:31.932Z,101333.14
2023-05-10T23:25:18.477Z,101335.55
2023-05-10T23:28:05.051Z,101336.95
2023-05-10T23:30:58.808Z,101338.77
2023-05-10T23:33:45.244Z,101338.38
2023-05-10T23:36:33.370Z,101340.75
2023-05-10T23:39:20.018Z,101346.06
2023-05-10T23:42:07.251Z,101340.50
2023-05-10T23:44:53.878Z,101343.78
2023-05-10T23:47:40.513Z,101344.30
2023-05-10T23:50:27.211Z,101348.11
2023-05-10T23:53:13.821Z,101345.23
2023-05-10T23:56:00.179Z,101343.29
2023-05-10T23:58:46.512Z,101343.66
